Time;durP1;ratioP1;P1;durP2;ratioP2;P2;SDS_P1;SDS_P2;PMS_P1;PMS_P2;Temp;Humidity;BMP_temperature;BMP_pressure;BME280_temperature;BME280_humidity;BME280_pressure;Samples;Min_cycle;Max_cycle;Signal;HPM_P1;HPM_P2
2022/09/12 00:01:13;;;;;;;4.05;3.72;;;21.30;57.60;;;;;;5034850;28;20247;-83
2022/09/12 00:03:40;;;;;;;4.35;4.00;;;21.30;57.60;;;;;;5034799;28;20239;-83
2022/09/12 00:06:08;;;;;;;4.03;3.67;;;21.30;57.60;;;;;;5038291;28;20195;-83
2022/09/12 00:08:36;;;;;;;4.05;3.65;;;21.30;57.60;;;;;;5038092;28;20215;-83
2022/09/12 00:11:07;;;;;;;3.30;3.00;;;21.30;57.70;;;;;;5037914;28;20215;-83
2022/09/12 00:13:34;;;;;;;3.97;3.67;;;21.30;57.70;;;;;;5037818;28;20199;-83
2022/09/12 00:16:01;;;;;;;3.90;3.60;;;21.30;57.70;;;;;;5037531;28;20238;-83
2022/09/12 00:18:28;;;;;;;3.80;3.50;;;21.30;57.70;;;;;;5037383;28;20202;-83
2022/09/12 00:20:55;;;;;;;3.95;3.65;;;21.20;57.70;;;;;;5037779;28;20227;-83
2022/09/12 00:23:22;;;;;;;4.68;3.78;;;21.20;57.70;;;;;;5037678;28;20659;-83
2022/09/12 00:25:49;;;;;;;4.22;3.65;;;21.30;57.80;;;;;;5037353;28;20207;-84
2022/09/12 00:28:18;;;;;;;3.83;3.53;;;21.20;57.70;;;;;;5037385;28;20202;-84
2022/09/12 00:30:47;;;;;;;3.85;3.50;;;21.20;57.70;;;;;;5037176;28;20277;-84
2022/09/12 00:33:15;;;;;;;3.90;3.60;;;21.20;57.80;;;;;;5037321;28;20202;-84
2022/09/12 00:35:43;;;;;;;3.88;3.58;;;21.20;57.80;;;;;;5037356;28;20203;-84
2022/09/12 00:38:10;;;;;;;3.83;3.53;;;21.20;57.80;;;;;;5037226;28;20199;-83
2022/09/12 00:40:37;;;;;;;3.58;3.33;;;21.20;57.80;;;;;;5036798;28;20246;-83
2022/09/12 00:43:04;;;;;;;3.83;3.53;;;21.20;57.80;;;;;;5037018;28;20200;-84
2022/09/12 00:45:33;;;;;;;3.92;3.60;;;21.20;57.80;;;;;;5037321;28;20192;-84
2022/09/12 00:48:02;;;;;;;3.80;3.50;;;21.20;57.80;;;;;;5037234;28;20199;-84
2022/09/12 00:50:29;;;;;;;4.18;3.78;;;21.20;57.80;;;;;;5037333;28;20231;-84
2022/09/12 00:52:58;;;;;;;3.75;3.55;;;21.20;57.80;;;;;;5037589;28;20196;-84
2022/09/12 00:55:26;;;;;;;3.70;3.40;;;21.20;57.90;;;;;;5037319;28;20203;-84
2022/09/12 00:57:56;;;;;;;3.80;3.60;;;21.20;57.90;;;;;;5037060;28;20199;-84
2022/09/12 01:00:24;;;;;;;3.60;3.40;;;21.20;57.90;;;;;;5036833;28;20213;-84
2022/09/12 01:02:54;;;;;;;3.80;3.53;;;21.10;57.80;;;;;;5036516;28;20656;-84
2022/09/12 01:05:22;;;;;;;3.78;3.47;;;21.10;57.80;;;;;;5036633;28;20570;-83
2022/09/12 01:07:49;;;;;;;3.90;3.60;;;21.10;57.80;;;;;;5037041;28;20298;-82
2022/09/12 01:10:16;;;;;;;3.83;3.53;;;21.10;57.80;;;;;;5036730;28;20219;-83
2022/09/12 01:12:44;;;;;;;3.70;3.40;;;21.10;57.80;;;;;;5036965;28;20199;-83
2022/09/12 01:15:11;;;;;;;4.05;3.75;;;21.10;57.90;;;;;;5036856;28;20656;-83
2022/09/12 01:17:45;;;;;;;3.83;3.53;;;21.10;57.90;;;;;;5026528;28;20575;-82
2022/09/12 01:20:41;;;;;;;3.72;3.42;;;21.10;57.90;;;;;;5035044;28;20168;-82
2022/09/12 01:23:47;;;;;;;4.07;3.67;;;21.10;57.90;;;;;;5017053;28;20223;-83
2022/09/12 01:26:41;;;;;;;4.20;3.80;;;21.10;57.90;;;;;;5016464;28;20690;-83
2022/09/12 01:29:20;;;;;;;3.38;3.17;;;21.00;57.80;;;;;;5015966;28;20216;-83
2022/09/12 01:31:52;;;;;;;3.47;3.22;;;21.00;57.90;;;;;;5030330;28;20223;-83
2022/09/12 01:34:20;;;;;;;3.90;3.60;;;21.00;57.90;;;;;;5036129;28;20195;-83
2022/09/12 01:36:52;;;;;;;3.72;3.53;;;21.00;57.90;;;;;;5036069;28;20215;-83
2022/09/12 01:39:26;;;;;;;3.40;3.20;;;21.00;57.90;;;;;;5036235;28;20202;-83
2022/09/12 01:41:56;;;;;;;3.70;3.50;;;21.00;57.90;;;;;;5036266;28;20306;-84
2022/09/12 01:44:27;;;;;;;3.53;3.30;;;21.00;57.90;;;;;;5036198;28;20223;-84
2022/09/12 01:46:58;;;;;;;3.40;3.20;;;21.00;57.90;;;;;;5036033;28;20205;-84
2022/09/12 01:49:27;;;;;;;3.67;3.38;;;21.00;58.00;;;;;;5035962;28;20582;-83
2022/09/12 01:51:57;;;;;;;4.20;3.90;;;21.00;58.00;;;;;;5036113;28;20226;-83
2022/09/12 01:54:27;;;;;;;4.05;3.75;;;21.00;58.00;;;;;;5035843;28;20242;-83
2022/09/12 01:56:56;;;;;;;3.40;3.20;;;20.90;57.90;;;;;;5035773;28;20598;-83
2022/09/12 01:59:25;;;;;;;3.67;3.47;;;20.90;57.90;;;;;;5036056;28;20191;-83
2022/09/12 02:01:55;;;;;;;3.55;3.25;;;20.90;58.00;;;;;;5032373;28;20599;-83
2022/09/12 02:04:25;;;;;;;3.60;3.30;;;20.90;58.00;;;;;;5032480;28;20203;-84
2022/09/12 02:06:54;;;;;;;3.40;3.20;;;20.90;57.90;;;;;;5015879;28;20196;-84
2022/09/12 02:09:22;;;;;;;3.50;3.30;;;20.90;58.00;;;;;;5015892;28;20235;-84
2022/09/12 02:11:50;;;;;;;3.80;3.50;;;20.90;58.00;;;;;;5033914;28;20204;-84
2022/09/12 02:14:19;;;;;;;3.60;3.40;;;20.90;58.00;;;;;;5036138;28;20226;-84
2022/09/12 02:16:48;;;;;;;3.40;3.10;;;20.90;58.00;;;;;;5036497;28;20224;-84
2022/09/12 02:19:17;;;;;;;4.20;3.65;;;20.90;58.00;;;;;;5043540;28;20562;-84
2022/09/12 02:21:51;;;;;;;3.30;3.10;;;20.90;58.00;;;;;;5036954;28;20311;-84
2022/09/12 02:24:18;;;;;;;3.60;3.30;;;20.90;58.00;;;;;;5036961;28;20198;-84
2022/09/12 02:26:48;;;;;;;4.10;3.80;;;20.80;57.90;;;;;;5036865;28;20790;-84
2022/09/12 02:29:15;;;;;;;3.50;3.20;;;20.80;58.00;;;;;;5036608;28;20235;-84
2022/09/12 02:31:45;;;;;;;3.50;3.30;;;20.90;58.00;;;;;;5036136;28;20316;-83
2022/09/12 02:34:20;;;;;;;3.25;3.05;;;20.80;57.90;;;;;;5019688;28;20246;-83
2022/09/12 02:36:51;;;;;;;3.47;3.28;;;20.80;58.00;;;;;;5037565;28;20218;-83
2022/09/12 02:39:19;;;;;;;4.03;3.65;;;20.90;58.10;;;;;;5036117;28;20188;-83
2022/09/12 02:41:47;;;;;;;3.72;3.45;;;20.80;58.00;;;;;;5029992;28;20265;-83
2022/09/12 02:44:14;;;;;;;3.40;3.20;;;20.80;58.00;;;;;;5040909;28;20545;-83
2022/09/12 02:46:42;;;;;;;3.70;3.40;;;20.80;58.00;;;;;;5050884;28;20192;-83
2022/09/12 02:49:10;;;;;;;3.28;3.08;;;20.80;58.00;;;;;;5036021;28;20715;-84
2022/09/12 02:51:37;;;;;;;3.13;2.92;;;20.80;58.00;;;;;;5037362;28;20720;-84
2022/09/12 02:54:06;;;;;;;3.53;3.33;;;20.80;58.00;;;;;;5039893;28;20207;-84
2022/09/12 02:56:33;;;;;;;3.67;3.40;;;20.80;58.00;;;;;;5020802;28;20738;-84
2022/09/12 02:59:02;;;;;;;3.35;3.15;;;20.80;58.00;;;;;;5035804;28;20203;-83
2022/09/12 03:01:39;;;;;;;2.95;2.75;;;20.80;58.00;;;;;;5036081;28;20250;-83
2022/09/12 03:04:17;;;;;;;3.50;3.30;;;20.80;58.00;;;;;;5035794;28;20214;-83
2022/09/12 03:06:47;;;;;;;3.40;3.10;;;20.70;58.00;;;;;;5019178;28;20302;-83
2022/09/12 03:09:17;;;;;;;3.47;3.28;;;20.70;58.00;;;;;;5035636;28;20684;-83
2022/09/12 03:12:08;;;;;;;3.50;3.30;;;20.70;58.00;;;;;;5035333;28;20224;-83
2022/09/12 03:14:43;;;;;;;3.42;3.20;;;20.70;57.80;;;;;;5028304;28;20724;-83
2022/09/12 03:17:14;;;;;;;3.67;3.38;;;20.70;57.60;;;;;;5019294;28;20578;-83
2022/09/12 03:19:46;;;;;;;3.80;3.50;;;20.80;57.50;;;;;;5035403;28;20602;-84
2022/09/12 03:22:15;;;;;;;3.80;3.50;;;20.80;57.50;;;;;;5035568;28;20274;-84
2022/09/12 03:24:48;;;;;;;2.95;2.75;;;20.80;57.50;;;;;;5034305;28;20723;-83
2022/09/12 03:27:16;;;;;;;3.28;3.08;;;20.80;57.40;;;;;;5034950;28;20208;-83
2022/09/12 03:29:45;;;;;;;3.30;3.10;;;20.90;57.30;;;;;;5035154;28;20212;-83
2022/09/12 03:32:12;;;;;;;3.75;3.42;;;20.90;57.10;;;;;;5018537;28;20693;-83
2022/09/12 03:34:39;;;;;;;3.53;3.33;;;21.00;57.10;;;;;;5035639;28;20591;-84
2022/09/12 03:37:06;;;;;;;3.30;3.10;;;21.00;56.80;;;;;;5019082;28;20291;-84
2022/09/12 03:39:33;;;;;;;3.00;2.80;;;21.10;56.80;;;;;;5018387;28;20645;-83
2022/09/12 03:42:02;;;;;;;3.20;3.00;;;21.10;56.70;;;;;;5038104;28;20222;-83
2022/09/12 03:44:29;;;;;;;3.60;3.40;;;21.10;56.50;;;;;;5038539;28;20286;-83
2022/09/12 03:46:56;;;;;;;3.28;3.00;;;21.10;56.50;;;;;;5038375;28;20192;-83
2022/09/12 03:49:23;;;;;;;3.20;2.95;;;21.20;56.30;;;;;;5038221;28;20656;-83
2022/09/12 03:51:50;;;;;;;3.35;3.10;;;21.20;56.30;;;;;;5038009;28;20225;-84
2022/09/12 03:54:17;;;;;;;3.10;2.90;;;21.20;56.30;;;;;;5038159;28;20207;-84
2022/09/12 03:56:44;;;;;;;3.22;3.03;;;21.20;56.30;;;;;;5038068;28;20200;-83
2022/09/12 03:59:13;;;;;;;3.15;2.95;;;21.20;56.20;;;;;;5038898;28;20192;-83
2022/09/12 04:01:40;;;;;;;3.22;3.03;;;21.30;56.20;;;;;;5039200;28;20273;-84
2022/09/12 04:04:08;;;;;;;3.25;3.05;;;21.30;56.00;;;;;;5038725;28;20257;-84
2022/09/12 04:06:35;;;;;;;3.15;2.95;;;21.30;55.80;;;;;;5038154;28;20290;-84
2022/09/12 04:09:03;;;;;;;3.08;2.88;;;21.30;55.70;;;;;;5035497;28;20659;-83
2022/09/12 04:11:31;;;;;;;3.53;3.22;;;21.30;55.70;;;;;;5036105;28;20298;-84
2022/09/12 04:13:58;;;;;;;3.50;3.20;;;21.30;55.60;;;;;;5037855;28;20199;-83
2022/09/12 04:16:27;;;;;;;4.10;3.35;;;21.40;55.50;;;;;;5038017;28;20195;-83
2022/09/12 04:18:54;;;;;;;3.40;3.15;;;21.40;55.40;;;;;;5037893;28;20196;-83
2022/09/12 04:21:21;;;;;;;3.58;3.28;;;21.30;55.60;;;;;;5034661;28;20270;-83
2022/09/12 04:23:49;;;;;;;3.45;3.22;;;21.30;55.80;;;;;;5036030;28;20276;-82
2022/09/12 04:26:17;;;;;;;3.63;3.33;;;21.30;56.20;;;;;;5036626;28;20222;-81
2022/09/12 04:28:44;;;;;;;3.67;3.38;;;21.30;56.10;;;;;;5020048;28;20196;-82
2022/09/12 04:31:14;;;;;;;4.55;3.70;;;21.20;56.40;;;;;;5036514;28;20234;-82
2022/09/12 04:33:42;;;;;;;4.80;3.30;;;21.20;56.40;;;;;;5039565;28;20205;-81
2022/09/12 04:36:10;;;;;;;3.90;3.40;;;21.20;56.70;;;;;;5037953;28;20199;-84
2022/09/12 04:38:38;;;;;;;3.60;3.30;;;21.20;56.80;;;;;;5038046;28;20206;-84
2022/09/12 04:41:11;;;;;;;4.07;3.38;;;21.20;56.90;;;;;;5037811;28;20215;-85
2022/09/12 04:43:38;;;;;;;3.42;3.13;;;21.10;57.10;;;;;;5038293;28;20203;-85
2022/09/12 04:46:06;;;;;;;3.33;3.05;;;21.10;57.20;;;;;;5054762;28;20694;-85
2022/09/12 04:48:33;;;;;;;3.67;3.20;;;21.10;57.30;;;;;;5038787;28;20619;-85
2022/09/12 04:51:08;;;;;;;4.40;3.40;;;21.00;57.50;;;;;;5037067;28;20638;-84
2022/09/12 04:53:35;;;;;;;3.40;3.13;;;21.10;57.80;;;;;;5037094;28;20195;-85
2022/09/12 04:56:03;;;;;;;3.95;3.42;;;21.00;57.60;;;;;;5037814;28;20199;-85
2022/09/12 04:58:31;;;;;;;3.75;3.40;;;21.10;57.50;;;;;;5037493;28;20223;-85
2022/09/12 05:01:05;;;;;;;3.65;3.35;;;21.00;57.00;;;;;;5036545;28;20269;-86
2022/09/12 05:03:32;;;;;;;6.40;3.38;;;21.00;56.90;;;;;;5037071;28;20632;-85
2022/09/12 05:05:59;;;;;;;4.63;3.15;;;21.00;57.10;;;;;;5036745;28;20277;-85
2022/09/12 05:08:28;;;;;;;4.65;4.15;;;21.00;57.10;;;;;;5036928;28;20290;-85
2022/09/12 05:10:55;;;;;;;4.05;3.75;;;20.90;56.00;;;;;;5037250;28;20227;-84
2022/09/12 05:13:23;;;;;;;3.92;3.63;;;20.90;55.00;;;;;;5036898;28;20195;-84
2022/09/12 05:16:03;;;;;;;4.45;4.10;;;20.90;54.80;;;;;;5036758;28;20218;-83
2022/09/12 05:18:31;;;;;;;4.43;4.03;;;20.90;54.30;;;;;;5037322;28;20626;-83
2022/09/12 05:20:59;;;;;;;4.95;4.10;;;20.80;54.10;;;;;;5037691;28;20219;-85
2022/09/12 05:23:26;;;;;;;4.60;4.30;;;20.80;53.70;;;;;;5037567;28;20204;-85
2022/09/12 05:25:56;;;;;;;4.40;4.00;;;20.80;53.60;;;;;;5037408;28;20226;-85
2022/09/12 05:28:23;;;;;;;4.40;4.00;;;20.80;53.30;;;;;;5036614;28;20571;-85
2022/09/12 05:31:00;;;;;;;4.47;4.18;;;20.80;53.10;;;;;;5036232;28;20223;-86
2022/09/12 05:33:27;;;;;;;4.55;4.25;;;20.80;52.90;;;;;;5036229;28;20194;-85
2022/09/12 05:35:54;;;;;;;4.65;3.95;;;20.80;52.90;;;;;;5036104;28;20205;-86
2022/09/12 05:38:23;;;;;;;4.00;3.70;;;20.80;52.70;;;;;;5036121;28;20290;-83
2022/09/12 05:40:50;;;;;;;4.03;3.63;;;20.80;52.30;;;;;;5036842;28;20219;-83
2022/09/12 05:43:19;;;;;;;3.97;3.67;;;20.80;53.00;;;;;;5036258;28;20203;-86
2022/09/12 05:45:46;;;;;;;3.78;3.20;;;20.80;52.90;;;;;;5037835;28;20195;-85
2022/09/12 05:48:13;;;;;;;3.53;3.30;;;20.90;53.00;;;;;;5035758;28;20198;-85
2022/09/12 05:50:41;;;;;;;3.45;3.15;;;20.80;53.00;;;;;;5035834;28;20230;-85
2022/09/12 05:53:08;;;;;;;4.35;3.95;;;20.90;53.00;;;;;;5036596;28;20199;-85
2022/09/12 05:55:35;;;;;;;3.55;3.30;;;21.00;53.00;;;;;;5036778;28;20206;-85
2022/09/12 05:58:02;;;;;;;3.58;3.28;;;21.10;52.90;;;;;;5037316;28;20237;-85
2022/09/12 06:00:31;;;;;;;3.78;3.47;;;21.10;52.80;;;;;;5036119;28;20195;-85
2022/09/12 06:02:58;;;;;;;3.55;3.33;;;21.20;52.70;;;;;;5035848;28;20196;-84
2022/09/12 06:05:25;;;;;;;3.60;3.30;;;21.20;52.70;;;;;;5053775;28;20199;-84
2022/09/12 06:07:52;;;;;;;3.40;3.10;;;21.20;52.60;;;;;;5036284;28;20203;-85
2022/09/12 06:10:21;;;;;;;3.80;3.50;;;21.20;52.60;;;;;;5036636;28;20313;-85
2022/09/12 06:12:49;;;;;;;3.47;3.20;;;21.30;53.40;;;;;;5037548;28;20196;-84
2022/09/12 06:15:17;;;;;;;3.42;3.13;;;21.30;52.60;;;;;;5036142;28;20263;-84
2022/09/12 06:17:45;;;;;;;3.60;3.30;;;21.30;52.60;;;;;;5035979;28;20203;-84
2022/09/12 06:20:12;;;;;;;3.15;2.95;;;21.40;52.60;;;;;;5035907;28;20226;-85
2022/09/12 06:22:39;;;;;;;3.53;2.97;;;21.40;52.50;;;;;;5035896;28;20238;-85
2022/09/12 06:25:07;;;;;;;3.50;3.20;;;21.40;52.50;;;;;;5035569;28;20195;-85
2022/09/12 06:27:35;;;;;;;2.90;2.70;;;21.50;52.40;;;;;;5035622;28;20268;-85
2022/09/12 06:30:02;;;;;;;2.65;2.45;;;21.60;52.10;;;;;;5035595;28;20195;-85
2022/09/12 06:32:30;;;;;;;3.70;3.20;;;21.70;51.70;;;;;;5035786;28;20227;-85
2022/09/12 06:34:59;;;;;;;3.13;2.92;;;21.90;51.40;;;;;;5035665;28;20706;-85
2022/09/12 06:37:26;;;;;;;2.92;2.72;;;22.10;50.90;;;;;;5035759;28;20296;-85
2022/09/12 06:39:53;;;;;;;3.00;2.70;;;22.40;50.40;;;;;;5035896;28;20562;-85
2022/09/12 06:42:21;;;;;;;3.03;2.80;;;22.60;49.90;;;;;;5035354;28;20222;-85
2022/09/12 06:44:56;;;;;;;3.10;2.90;;;22.80;49.60;;;;;;5036497;28;20221;-85
2022/09/12 06:47:23;;;;;;;3.70;3.40;;;22.90;49.30;;;;;;5035755;28;20238;-85
2022/09/12 06:49:51;;;;;;;4.03;3.65;;;23.00;49.20;;;;;;5035994;28;20234;-85
2022/09/12 06:52:20;;;;;;;3.75;3.35;;;23.10;49.00;;;;;;5036065;28;20321;-85
2022/09/12 06:54:47;;;;;;;3.97;3.67;;;23.30;49.20;;;;;;5036676;28;20203;-85
2022/09/12 06:57:14;;;;;;;4.47;3.58;;;23.40;48.50;;;;;;5036146;28;20199;-85
2022/09/12 06:59:41;;;;;;;3.42;3.13;;;23.60;48.20;;;;;;5036762;28;20195;-85
2022/09/12 07:02:09;;;;;;;5.72;3.95;;;23.80;47.80;;;;;;5036591;28;20211;-85
2022/09/12 07:04:36;;;;;;;3.85;3.45;;;24.00;47.60;;;;;;5021143;28;20255;-85
2022/09/12 07:07:03;;;;;;;3.55;3.30;;;24.10;47.30;;;;;;5020952;28;20200;-85
2022/09/12 07:09:32;;;;;;;3.00;2.80;;;24.30;46.90;;;;;;5020318;28;20225;-85
2022/09/12 07:12:02;;;;;;;3.22;3.00;;;24.40;46.60;;;;;;5019975;28;20818;-85
2022/09/12 07:14:29;;;;;;;3.40;3.10;;;24.60;46.40;;;;;;5039321;28;20287;-85
2022/09/12 07:16:56;;;;;;;3.50;3.20;;;24.70;46.30;;;;;;5039986;28;20270;-85
2022/09/12 07:19:23;;;;;;;4.45;3.40;;;24.80;46.10;;;;;;5039072;28;20191;-85
2022/09/12 07:21:50;;;;;;;3.22;2.97;;;24.90;45.90;;;;;;5039446;28;20265;-86
2022/09/12 07:24:17;;;;;;;3.47;3.17;;;25.00;45.60;;;;;;5039059;28;20220;-86
2022/09/12 07:26:46;;;;;;;3.50;3.20;;;25.10;45.50;;;;;;5039063;28;20313;-86
2022/09/12 07:29:14;;;;;;;3.47;3.17;;;25.10;45.30;;;;;;5038477;28;20205;-86
2022/09/12 07:31:42;;;;;;;3.08;2.80;;;25.20;45.10;;;;;;5038281;28;20226;-86
2022/09/12 07:34:09;;;;;;;3.30;2.90;;;25.30;44.90;;;;;;5038752;28;20571;-86
2022/09/12 07:36:36;;;;;;;3.10;2.90;;;25.40;44.80;;;;;;5035234;28;20211;-86
2022/09/12 07:39:03;;;;;;;3.17;2.92;;;25.50;44.70;;;;;;5018995;28;20246;-86
2022/09/12 07:41:32;;;;;;;3.95;3.10;;;25.60;44.50;;;;;;5018625;28;20266;-86
2022/09/12 07:44:02;;;;;;;2.53;2.38;;;25.60;44.30;;;;;;5018914;28;20208;-86
2022/09/12 07:46:29;;;;;;;3.47;2.85;;;25.70;44.10;;;;;;5019217;28;20202;-86
2022/09/12 07:48:57;;;;;;;3.05;2.85;;;25.70;44.00;;;;;;5018979;28;20201;-86
2022/09/12 07:51:25;;;;;;;3.42;3.13;;;25.80;43.90;;;;;;5018256;28;20247;-86
2022/09/12 07:53:52;;;;;;;3.03;2.72;;;25.90;43.70;;;;;;5018406;28;20227;-86
2022/09/12 07:56:21;;;;;;;3.20;3.00;;;26.00;43.70;;;;;;5018014;28;20200;-86
2022/09/12 07:58:48;;;;;;;2.90;2.70;;;26.00;43.60;;;;;;5019110;28;20282;-86
2022/09/12 08:01:17;;;;;;;3.50;3.00;;;26.10;43.70;;;;;;5018552;28;20306;-86
2022/09/12 08:03:45;;;;;;;2.90;2.65;;;26.10;43.60;;;;;;5019016;28;20208;-86
2022/09/12 08:06:13;;;;;;;2.80;2.60;;;26.10;43.60;;;;;;5018570;28;20226;-86
2022/09/12 08:08:41;;;;;;;2.75;2.45;;;26.20;43.50;;;;;;5019642;28;20216;-86
2022/09/12 08:11:09;;;;;;;2.90;2.70;;;26.30;43.40;;;;;;5019939;28;20235;-86
2022/09/12 08:13:37;;;;;;;2.90;2.70;;;26.30;43.30;;;;;;5020789;28;20211;-86
2022/09/12 08:16:06;;;;;;;2.70;2.50;;;26.40;43.20;;;;;;5038920;28;20191;-86
2022/09/12 08:18:35;;;;;;;3.03;2.83;;;26.50;43.10;;;;;;5021973;28;20192;-86
2022/09/12 08:21:04;;;;;;;2.88;2.50;;;26.50;43.00;;;;;;5020232;28;20207;-86
2022/09/12 08:23:31;;;;;;;3.15;2.45;;;26.50;42.90;;;;;;5019551;28;20196;-86
2022/09/12 08:25:58;;;;;;;2.72;2.53;;;26.60;42.90;;;;;;5019546;28;20211;-86
2022/09/12 08:28:25;;;;;;;2.72;2.53;;;26.60;42.80;;;;;;5020215;28;20235;-86
2022/09/12 08:30:53;;;;;;;2.80;2.60;;;26.60;42.60;;;;;;5018854;28;20215;-87
2022/09/12 08:33:21;;;;;;;2.88;2.67;;;26.70;42.60;;;;;;5019001;28;20207;-86
2022/09/12 08:35:49;;;;;;;2.80;2.60;;;26.70;42.50;;;;;;5018852;28;20200;-87
2022/09/12 08:38:18;;;;;;;3.38;2.28;;;26.80;42.50;;;;;;5019197;28;20648;-86
2022/09/12 08:40:51;;;;;;;2.47;2.38;;;26.80;42.30;;;;;;5036082;28;20211;-86
2022/09/12 08:43:26;;;;;;;3.25;2.53;;;26.80;42.30;;;;;;5017917;28;20199;-86
2022/09/12 08:45:56;;;;;;;2.70;2.50;;;26.90;42.30;;;;;;5019069;28;20282;-86
2022/09/12 08:48:23;;;;;;;2.97;2.63;;;26.90;42.50;;;;;;5018721;28;20210;-86
2022/09/12 08:50:51;;;;;;;2.72;2.53;;;26.90;42.40;;;;;;5018467;28;20223;-86
2022/09/12 08:53:20;;;;;;;2.90;2.67;;;26.90;42.20;;;;;;5018939;28;20670;-86
2022/09/12 08:55:50;;;;;;;2.55;2.35;;;27.00;42.30;;;;;;5018716;28;20207;-86
2022/09/12 08:58:19;;;;;;;2.35;2.25;;;27.00;42.20;;;;;;5018002;28;20656;-86
2022/09/12 09:00:49;;;;;;;2.75;2.38;;;27.00;42.30;;;;;;5018195;28;20589;-86
2022/09/12 09:03:30;;;;;;;2.50;2.30;;;27.00;42.40;;;;;;5018206;28;20203;-87
2022/09/12 09:06:01;;;;;;;3.15;2.20;;;27.00;42.30;;;;;;5019786;28;20198;-87
2022/09/12 09:08:35;;;;;;;2.60;2.40;;;27.00;42.30;;;;;;5019827;28;20200;-87
2022/09/12 09:11:07;;;;;;;2.63;2.42;;;27.00;42.20;;;;;;5020200;28;20653;-87
2022/09/12 09:16:30;;;;;;;2.50;2.28;;;27.00;42.20;;;;;;5039049;28;20268;-86
2022/09/12 09:18:58;;;;;;;2.50;2.30;;;27.10;42.20;;;;;;5039126;28;20265;-86
2022/09/12 09:21:30;;;;;;;2.20;2.10;;;27.10;42.30;;;;;;5038176;28;20257;-86
2022/09/12 09:24:01;;;;;;;2.50;2.30;;;27.00;42.30;;;;;;5037602;28;20194;-85
2022/09/12 09:26:29;;;;;;;2.53;2.33;;;27.10;42.40;;;;;;5038651;28;20216;-85
2022/09/12 09:28:58;;;;;;;2.28;2.08;;;27.00;42.30;;;;;;5038948;28;20194;-85
2022/09/12 09:31:26;;;;;;;2.72;2.53;;;27.10;42.50;;;;;;5056325;28;20270;-85
2022/09/12 09:33:55;;;;;;;2.05;1.95;;;27.00;42.50;;;;;;5038846;28;20199;-87
2022/09/12 09:36:24;;;;;;;2.50;2.30;;;27.00;42.50;;;;;;5040325;28;20205;-86
2022/09/12 09:38:58;;;;;;;2.30;2.13;;;27.00;42.40;;;;;;5038978;28;20199;-85
2022/09/12 09:41:41;;;;;;;2.47;2.28;;;27.00;42.50;;;;;;5038147;28;20762;-85
2022/09/12 09:44:09;;;;;;;2.45;2.35;;;27.00;42.50;;;;;;5035922;28;20203;-85
2022/09/12 09:46:36;;;;;;;2.47;2.28;;;27.00;42.50;;;;;;5038258;28;20195;-85
2022/09/12 09:49:04;;;;;;;2.40;2.20;;;27.00;42.60;;;;;;5055563;28;20183;-85
2022/09/12 09:51:34;;;;;;;2.47;2.28;;;27.00;42.50;;;;;;5056249;28;20211;-86
2022/09/12 09:54:05;;;;;;;2.67;2.47;;;27.00;42.60;;;;;;5038173;28;20251;-85
2022/09/12 09:56:33;;;;;;;2.53;2.33;;;27.00;42.70;;;;;;5033516;28;20199;-85
2022/09/12 09:59:10;;;;;;;2.50;2.30;;;27.00;42.70;;;;;;5016005;28;20373;-85
2022/09/12 10:01:38;;;;;;;2.35;2.25;;;27.00;42.80;;;;;;5015947;28;20305;-85
2022/09/12 10:04:06;;;;;;;2.22;2.13;;;26.90;42.80;;;;;;5016525;28;20258;-85
2022/09/12 10:06:33;;;;;;;2.50;2.30;;;26.90;42.90;;;;;;5017368;28;20207;-85
2022/09/12 10:09:21;;;;;;;2.30;2.10;;;26.90;42.90;;;;;;5016039;28;20206;-85
2022/09/12 10:11:48;;;;;;;2.30;2.20;;;26.80;43.00;;;;;;5014527;28;20238;-85
2022/09/12 10:14:37;;;;;;;2.30;2.20;;;26.90;43.00;;;;;;5019637;28;20200;-85
2022/09/12 10:17:23;;;;;;;2.00;1.90;;;26.80;43.10;;;;;;5021318;28;20226;-85
2022/09/12 10:19:50;;;;;;;2.10;2.00;;;26.80;43.30;;;;;;5020429;28;20230;-85
2022/09/12 10:22:18;;;;;;;2.33;2.13;;;26.80;43.40;;;;;;5021316;28;20227;-85
2022/09/12 10:24:49;;;;;;;2.50;2.30;;;26.70;43.40;;;;;;5020728;28;20207;-85
2022/09/12 10:27:19;;;;;;;2.30;2.10;;;26.70;43.50;;;;;;5018639;28;20204;-85
2022/09/12 10:29:47;;;;;;;2.40;2.20;;;26.60;43.60;;;;;;5017008;28;20254;-85
2022/09/12 10:32:19;;;;;;;2.35;2.20;;;26.60;43.80;;;;;;5016890;28;20215;-85
2022/09/12 10:34:46;;;;;;;2.50;2.30;;;26.50;43.90;;;;;;5018405;28;20262;-85
2022/09/12 10:37:18;;;;;;;2.20;2.10;;;26.40;44.10;;;;;;5020439;28;20202;-85
2022/09/12 10:39:52;;;;;;;2.17;2.08;;;26.40;44.20;;;;;;5021488;28;20203;-85
2022/09/12 10:42:47;;;;;;;2.63;2.42;;;26.40;44.50;;;;;;5021194;28;20241;-85
2022/09/12 10:45:23;;;;;;;2.28;2.13;;;26.30;44.50;;;;;;5019961;28;20204;-85
2022/09/12 10:47:50;;;;;;;2.25;2.15;;;26.30;44.70;;;;;;5021005;28;20199;-85
2022/09/12 10:50:20;;;;;;;2.00;1.90;;;26.20;44.70;;;;;;5021154;28;20266;-86
2022/09/12 10:52:48;;;;;;;1.90;1.80;;;26.20;44.80;;;;;;5021209;28;20203;-85
2022/09/12 10:55:16;;;;;;;2.00;1.90;;;26.20;44.90;;;;;;5020816;28;20549;-85
2022/09/12 10:57:53;;;;;;;2.20;2.10;;;26.20;44.90;;;;;;5020286;28;20223;-85
2022/09/12 11:00:26;;;;;;;2.28;2.17;;;26.20;45.00;;;;;;5019394;28;20218;-85
2022/09/12 11:02:58;;;;;;;2.20;2.10;;;26.20;45.10;;;;;;5034475;28;20208;-85
2022/09/12 11:05:51;;;;;;;2.00;1.90;;;26.10;45.20;;;;;;5022200;28;20215;-85
2022/09/12 11:08:52;;;;;;;1.90;1.80;;;26.10;45.30;;;;;;5019283;28;20206;-85
2022/09/12 11:11:44;;;;;;;2.10;2.00;;;26.00;45.30;;;;;;5018921;28;20686;-85
2022/09/12 11:14:23;;;;;;;2.03;1.92;;;26.00;45.50;;;;;;5019175;28;20203;-85
2022/09/12 11:16:54;;;;;;;2.30;2.10;;;26.00;45.60;;;;;;5020813;28;20559;-85
2022/09/12 11:19:40;;;;;;;2.40;2.20;;;26.00;45.70;;;;;;5020599;28;20188;-85
2022/09/12 11:22:18;;;;;;;2.10;2.00;;;26.00;45.70;;;;;;5019383;28;20211;-85
2022/09/12 11:24:51;;;;;;;2.20;2.00;;;26.00;45.90;;;;;;5018838;28;20569;-85
2022/09/12 11:27:33;;;;;;;2.13;2.03;;;26.00;45.80;;;;;;5018920;28;20215;-84
2022/09/12 11:30:03;;;;;;;2.10;1.95;;;25.90;45.80;;;;;;5018957;28;20195;-85
2022/09/12 11:33:07;;;;;;;2.10;2.00;;;25.90;45.80;;;;;;5018439;28;20223;-84
2022/09/12 11:35:34;;;;;;;2.83;2.03;;;25.90;45.90;;;;;;5017912;28;20207;-84
2022/09/12 11:38:35;;;;;;;2.10;2.00;;;25.90;45.90;;;;;;5020605;28;20294;-84
2022/09/12 11:41:03;;;;;;;1.90;1.80;;;25.90;46.00;;;;;;5019541;28;20220;-85
2022/09/12 11:43:36;;;;;;;2.00;1.90;;;25.90;46.00;;;;;;5036296;28;20187;-85
2022/09/12 11:46:08;;;;;;;2.00;1.90;;;26.00;46.10;;;;;;5017801;28;20191;-84
2022/09/12 11:48:38;;;;;;;1.77;1.67;;;26.00;46.10;;;;;;5020286;28;20250;-84
2022/09/12 11:51:07;;;;;;;2.20;2.10;;;25.90;46.10;;;;;;5020157;28;20222;-85
2022/09/12 11:53:36;;;;;;;1.95;1.85;;;26.00;46.20;;;;;;5020157;28;20223;-85
2022/09/12 11:56:07;;;;;;;1.90;1.80;;;26.00;46.20;;;;;;5020267;28;20203;-85
2022/09/12 11:58:36;;;;;;;2.00;1.90;;;26.00;46.20;;;;;;5020597;28;20195;-85
2022/09/12 12:01:12;;;;;;;2.13;2.03;;;26.00;46.20;;;;;;5036379;28;20212;-85
2022/09/12 12:03:40;;;;;;;2.08;1.98;;;26.00;46.40;;;;;;5018167;28;20551;-85
2022/09/12 12:06:11;;;;;;;1.90;1.80;;;26.00;46.40;;;;;;5018316;28;20651;-85
2022/09/12 12:08:39;;;;;;;2.00;1.90;;;26.00;46.40;;;;;;5019113;28;20208;-85
2022/09/12 12:11:06;;;;;;;1.90;1.80;;;26.00;46.40;;;;;;5035515;28;20294;-85
2022/09/12 12:13:37;;;;;;;1.80;1.70;;;25.90;46.40;;;;;;5035362;28;20203;-85
2022/09/12 12:16:06;;;;;;;1.77;1.67;;;26.00;46.60;;;;;;5017988;28;20238;-85
2022/09/12 12:18:37;;;;;;;1.92;1.83;;;26.00;46.60;;;;;;5017746;28;20199;-84
2022/09/12 12:21:36;;;;;;;1.88;1.77;;;25.90;46.70;;;;;;5017526;28;20230;-85
2022/09/12 12:24:14;;;;;;;1.95;1.85;;;25.90;46.70;;;;;;5017526;28;20215;-85
2022/09/12 12:26:57;;;;;;;1.83;1.73;;;25.90;46.80;;;;;;5017458;28;20199;-85
2022/09/12 12:29:42;;;;;;;1.90;1.80;;;25.90;46.90;;;;;;5018429;28;20195;-85
2022/09/12 12:32:27;;;;;;;2.05;1.95;;;25.90;46.90;;;;;;5017842;28;20219;-85
2022/09/12 12:35:32;;;;;;;1.98;1.88;;;25.90;47.00;;;;;;5017503;28;20655;-85
2022/09/12 12:37:59;;;;;;;1.88;1.77;;;25.80;47.00;;;;;;5017908;28;20254;-85
2022/09/12 12:40:27;;;;;;;1.85;1.75;;;25.90;47.10;;;;;;5017113;28;20613;-84
2022/09/12 12:43:30;;;;;;;2.05;1.60;;;25.80;47.20;;;;;;5017271;28;20247;-84
2022/09/12 12:46:04;;;;;;;1.90;1.80;;;25.80;47.30;;;;;;5017166;28;20192;-84
2022/09/12 12:48:34;;;;;;;1.70;1.60;;;25.80;47.40;;;;;;5023357;28;20201;-84
2022/09/12 12:51:35;;;;;;;1.48;1.40;;;25.80;47.40;;;;;;5017158;28;20223;-84
2022/09/12 12:54:03;;;;;;;1.70;1.60;;;25.70;47.50;;;;;;4954786;29;20243;-84
2022/09/12 12:56:35;;;;;;;1.80;1.70;;;25.70;47.50;;;;;;5001989;28;20716;-84
2022/09/12 12:59:11;;;;;;;1.90;1.80;;;25.70;47.60;;;;;;5017676;28;20192;-84
2022/09/12 13:01:45;;;;;;;1.70;1.60;;;25.70;47.60;;;;;;5028984;28;20219;-84
2022/09/12 13:04:13;;;;;;;1.70;1.60;;;25.70;48.30;;;;;;5036641;28;20246;-84
2022/09/12 13:06:41;;;;;;;1.83;1.73;;;25.70;47.70;;;;;;5036611;28;20272;-84
2022/09/12 13:09:10;;;;;;;1.80;1.70;;;25.70;47.80;;;;;;5037378;28;20206;-84